Time;durP1;ratioP1;P1;durP2;ratioP2;P2;SDS_P1;SDS_P2;PMS_P1;PMS_P2;Temp;Humidity;BMP_temperature;BMP_pressure;BME280_temperature;BME280_humidity;BME280_pressure;Samples;Min_cycle;Max_cycle;Signal;HPM_P1;HPM_P2
2023/03/28 00:01:36;;;;;;;1.80;1.70;;;;;;;4.57;58.04;93849.88;4972055;28;20239;-64
2023/03/28 00:04:02;;;;;;;1.80;1.70;;;;;;;4.48;58.77;93842.13;5001034;28;20220;-63
2023/03/28 00:06:27;;;;;;;1.53;1.43;;;;;;;4.54;57.25;93860.56;5006564;28;20228;-63
2023/03/28 00:08:54;;;;;;;1.53;1.43;;;;;;;4.71;57.12;93874.63;4970223;28;20307;-64
2023/03/28 00:11:21;;;;;;;1.43;1.33;;;;;;;4.60;56.27;93893.84;5002966;28;20193;-64
2023/03/28 00:13:59;;;;;;;2.73;1.20;;;;;;;4.55;55.90;93897.84;5000572;28;20228;-63
2023/03/28 00:16:30;;;;;;;1.37;1.27;;;;;;;4.35;56.33;93897.91;4994123;28;20231;-67
2023/03/28 00:18:59;;;;;;;1.80;1.70;;;;;;;4.42;57.28;93906.78;4965695;28;20224;-68
2023/03/28 00:21:36;;;;;;;1.43;1.33;;;;;;;4.44;56.68;93909.25;4969019;28;20244;-67
2023/03/28 00:24:04;;;;;;;1.40;1.30;;;;;;;4.38;56.52;93913.25;4963663;28;20224;-67
2023/03/28 00:26:33;;;;;;;1.70;1.40;;;;;;;4.29;56.36;93928.88;4996838;28;20195;-67
2023/03/28 00:29:00;;;;;;;1.60;1.50;;;;;;;4.02;56.70;93922.63;4969118;28;20192;-66
2023/03/28 00:31:26;;;;;;;1.50;1.40;;;;;;;4.18;56.86;93950.69;4972280;28;20213;-67
2023/03/28 00:33:53;;;;;;;1.50;1.40;;;;;;;4.09;56.36;93956.69;4999644;28;20307;-67
2023/03/28 00:36:22;;;;;;;1.80;1.70;;;;;;;3.94;56.68;93946.72;4969193;28;20243;-66
2023/03/28 00:38:52;;;;;;;1.70;1.60;;;;;;;4.07;56.52;93964.66;4965053;28;20192;-65
2023/03/28 00:41:20;;;;;;;1.53;1.43;;;;;;;4.16;56.25;93950.00;4998903;28;20285;-68
2023/03/28 00:43:51;;;;;;;1.87;1.73;;;;;;;4.17;55.86;93955.06;4970494;28;20222;-67
2023/03/28 00:46:29;;;;;;;1.73;1.63;;;;;;;4.01;56.21;93959.16;4962840;28;20243;-67
2023/03/28 00:49:21;;;;;;;2.20;2.10;;;;;;;3.83;57.02;93978.06;4969250;28;20231;-66
2023/03/28 00:51:55;;;;;;;2.07;1.97;;;;;;;3.71;57.46;93987.75;4965806;28;20308;-66
2023/03/28 00:54:22;;;;;;;2.63;2.43;;;;;;;3.71;57.14;93981.75;5003752;28;20886;-63
2023/03/28 00:56:53;;;;;;;2.70;2.50;;;;;;;3.69;58.04;93978.50;4967878;28;20197;-68
2023/03/28 00:59:22;;;;;;;3.10;2.90;;;;;;;3.85;57.29;93993.53;4972801;28;20184;-64
2023/03/28 01:01:48;;;;;;;3.17;2.97;;;;;;;3.90;56.54;93999.13;4970203;28;20232;-67
2023/03/28 01:04:19;;;;;;;3.27;3.03;;;;;;;3.43;57.00;94012.78;4973536;28;20230;-68
2023/03/28 01:06:48;;;;;;;2.77;2.57;;;;;;;3.40;56.94;94002.66;4981926;28;20327;-67
2023/03/28 01:09:15;;;;;;;2.97;2.77;;;;;;;3.28;57.39;93999.31;4970731;28;20250;-68
2023/03/28 01:11:44;;;;;;;2.90;2.70;;;;;;;3.33;56.70;94006.72;4981109;28;20211;-69
2023/03/28 01:14:14;;;;;;;2.83;2.63;;;;;;;3.35;56.81;94009.19;4968033;28;20205;-68
2023/03/28 01:16:41;;;;;;;2.63;2.50;;;;;;;3.44;55.75;94030.00;4996521;28;20243;-67
2023/03/28 01:19:41;;;;;;;2.70;2.50;;;;;;;3.45;55.58;94029.06;4970297;28;20227;-68
2023/03/28 01:22:37;;;;;;;2.80;2.60;;;;;;;3.05;56.51;94040.28;4932523;29;20596;-68
2023/03/28 01:25:28;;;;;;;2.63;2.43;;;;;;;2.96;56.67;94048.00;4949070;28;20323;-64
2023/03/28 01:28:04;;;;;;;2.57;2.37;;;;;;;3.09;56.29;94031.25;4928795;29;20271;-63
2023/03/28 01:30:48;;;;;;;2.70;2.50;;;;;;;2.87;57.29;94037.44;4932798;29;20368;-67
2023/03/28 01:33:31;;;;;;;2.70;2.60;;;;;;;2.97;57.11;94018.50;4932926;29;20228;-67
2023/03/28 01:36:27;;;;;;;2.57;2.30;;;;;;;3.12;55.71;94060.53;4945614;29;20376;-67
2023/03/28 01:39:19;;;;;;;2.43;2.23;;;;;;;2.78;56.13;94066.78;4930990;28;20287;-64
2023/03/28 01:42:06;;;;;;;2.97;2.77;;;;;;;2.72;56.44;94048.28;4894379;29;20253;-64
2023/03/28 01:44:57;;;;;;;2.53;2.43;;;;;;;2.89;55.88;94042.53;4911767;29;20198;-68
2023/03/28 01:47:44;;;;;;;2.80;2.60;;;;;;;2.87;55.93;94039.22;4896135;29;20231;-64
2023/03/28 01:50:24;;;;;;;2.70;2.50;;;;;;;2.85;56.28;94044.53;4896853;29;20294;-64
2023/03/28 01:52:57;;;;;;;2.97;2.77;;;;;;;3.05;55.60;94048.06;4911855;29;20253;-67
2023/03/28 01:55:30;;;;;;;3.20;3.00;;;;;;;2.95;55.82;94047.19;4909650;29;20234;-66
2023/03/28 01:58:12;;;;;;;3.10;2.90;;;;;;;2.95;55.75;94049.78;4898262;29;20226;-68
2023/03/28 02:00:41;;;;;;;2.77;2.57;;;;;;;2.72;56.20;94066.47;4891514;29;20238;-67
2023/03/28 02:03:17;;;;;;;2.83;2.63;;;;;;;2.74;56.78;94056.78;4894375;29;20316;-67
2023/03/28 02:05:46;;;;;;;2.97;2.77;;;;;;;2.67;56.42;94056.44;4892558;29;20210;-67
2023/03/28 02:08:13;;;;;;;3.10;2.90;;;;;;;2.78;56.36;94037.38;4912058;29;20198;-67
2023/03/28 02:10:42;;;;;;;3.10;2.80;;;;;;;2.67;56.73;94042.66;4892636;29;20242;-66
2023/03/28 02:13:21;;;;;;;3.10;2.90;;;;;;;2.78;56.34;94034.78;4904766;29;20238;-67
2023/03/28 02:15:51;;;;;;;3.10;2.90;;;;;;;2.64;56.42;94043.72;4910293;29;20230;-68
2023/03/28 02:18:28;;;;;;;2.97;2.77;;;;;;;2.67;56.25;94046.06;4922013;28;20232;-67
2023/03/28 02:20:58;;;;;;;3.17;2.97;;;;;;;2.85;55.84;94033.34;4959894;28;20238;-64
2023/03/28 02:23:29;;;;;;;3.17;2.97;;;;;;;2.90;55.76;94033.78;4967445;28;20251;-64
2023/03/28 02:25:55;;;;;;;3.47;2.80;;;;;;;2.87;55.85;94021.03;4964872;28;20213;-64
2023/03/28 02:28:22;;;;;;;3.13;2.93;;;;;;;2.86;55.82;94001.22;4996526;28;20223;-63
2023/03/28 02:30:48;;;;;;;3.77;3.50;;;;;;;2.81;56.95;94017.19;4974706;28;20281;-68
2023/03/28 02:33:29;;;;;;;3.10;2.90;;;;;;;2.89;56.39;94016.56;4974939;28;20307;-69
2023/03/28 02:36:16;;;;;;;3.40;3.10;;;;;;;2.99;56.48;94012.19;4969358;28;20221;-66
2023/03/28 02:39:03;;;;;;;3.50;3.20;;;;;;;2.94;56.64;94010.94;4964597;28;20212;-67
2023/03/28 02:41:31;;;;;;;3.00;2.70;;;;;;;2.97;55.68;94018.50;4972846;28;20224;-68
2023/03/28 02:44:35;;;;;;;2.73;2.53;;;;;;;2.88;55.93;94041.69;4967610;28;20192;-64
2023/03/28 02:47:29;;;;;;;3.30;3.00;;;;;;;2.94;55.83;94026.53;4979098;28;20220;-63
2023/03/28 02:50:01;;;;;;;3.27;3.07;;;;;;;3.03;55.88;94029.19;4974157;28;20241;-67
2023/03/28 02:52:35;;;;;;;3.50;3.20;;;;;;;3.27;55.13;94033.25;4963820;28;20299;-65
2023/03/28 02:55:16;;;;;;;3.17;2.87;;;;;;;3.23;55.53;94034.44;4967449;28;20223;-66
2023/03/28 02:57:49;;;;;;;3.30;3.10;;;;;;;3.25;55.30;94033.34;4999066;28;20225;-66
2023/03/28 03:00:18;;;;;;;3.23;2.97;;;;;;;3.21;55.43;94005.19;5001781;28;20230;-65
2023/03/28 03:02:48;;;;;;;1.90;1.70;;;;;;;3.13;53.74;94042.22;5002942;28;20192;-65
2023/03/28 03:05:14;;;;;;;1.90;1.80;;;;;;;2.93;54.08;94046.50;4971284;28;20244;-67
2023/03/28 03:07:41;;;;;;;1.70;1.60;;;;;;;2.93;54.13;94041.28;4970088;28;20727;-65
2023/03/28 03:10:10;;;;;;;2.13;2.00;;;;;;;3.08;54.47;94042.59;4972471;28;20304;-67
2023/03/28 03:12:36;;;;;;;2.10;2.00;;;;;;;3.09;54.30;94046.84;4973045;28;20257;-66
2023/03/28 03:15:03;;;;;;;2.20;2.10;;;;;;;3.14;54.51;94037.84;4968968;28;20228;-63
2023/03/28 03:17:29;;;;;;;2.60;2.40;;;;;;;3.33;53.93;94037.91;4971552;28;20259;-64
2023/03/28 03:19:55;;;;;;;2.10;2.00;;;;;;;3.24;54.04;94051.69;4969709;28;20276;-63
2023/03/28 03:22:22;;;;;;;2.03;1.93;;;;;;;3.23;54.00;94034.44;4965142;28;20227;-63
2023/03/28 03:24:49;;;;;;;2.07;1.97;;;;;;;3.07;54.00;94055.72;4971866;28;20227;-66
2023/03/28 03:27:17;;;;;;;2.10;1.90;;;;;;;3.18;53.90;94044.41;4973380;28;20220;-67
2023/03/28 03:29:43;;;;;;;1.93;1.83;;;;;;;3.05;53.63;94055.03;4972530;28;20189;-66
2023/03/28 03:32:08;;;;;;;2.40;2.30;;;;;;;2.88;54.34;94064.22;4971659;28;20199;-66
2023/03/28 03:34:35;;;;;;;1.90;1.80;;;;;;;2.91;54.04;94079.53;4966386;28;20220;-64
2023/03/28 03:37:01;;;;;;;1.83;1.73;;;;;;;3.01;53.42;94080.41;4973227;28;20753;-66
2023/03/28 03:39:27;;;;;;;2.10;1.90;;;;;;;2.91;53.56;94076.94;4971217;28;20224;-65
2023/03/28 03:41:52;;;;;;;2.20;2.00;;;;;;;3.00;53.08;94083.97;4997129;28;20229;-68
2023/03/28 03:44:18;;;;;;;1.93;1.83;;;;;;;2.96;53.63;94072.19;4973615;28;20280;-65
2023/03/28 03:46:43;;;;;;;1.73;1.63;;;;;;;2.85;52.99;94083.47;4972749;28;20347;-66
2023/03/28 03:49:09;;;;;;;1.60;1.50;;;;;;;2.92;52.33;94101.16;4970943;28;20298;-67
2023/03/28 03:51:34;;;;;;;1.60;1.50;;;;;;;2.94;51.93;94094.91;4979739;28;20224;-65
2023/03/28 03:54:00;;;;;;;1.60;1.50;;;;;;;2.71;52.57;94114.97;5002536;28;20220;-66
2023/03/28 03:56:25;;;;;;;1.83;1.73;;;;;;;2.74;52.65;94114.72;4965582;28;20323;-70
2023/03/28 03:58:51;;;;;;;2.03;1.83;;;;;;;2.84;52.55;94113.00;4969491;28;20228;-69
2023/03/28 04:01:16;;;;;;;1.60;1.50;;;;;;;2.78;52.57;94125.66;4970219;28;20303;-69
2023/03/28 04:03:42;;;;;;;1.80;1.70;;;;;;;2.87;51.75;94117.94;4999645;28;20228;-68
2023/03/28 04:06:08;;;;;;;3.10;1.53;;;;;;;2.72;52.19;94132.16;4973072;28;20226;-67
2023/03/28 04:08:34;;;;;;;3.23;1.60;;;;;;;2.82;51.55;94133.06;4968718;28;20181;-68
2023/03/28 04:11:00;;;;;;;2.37;1.60;;;;;;;2.99;51.06;94123.06;4970068;28;20176;-68
2023/03/28 04:13:25;;;;;;;1.50;1.40;;;;;;;2.71;51.94;94140.09;5002312;28;20298;-70
2023/03/28 04:15:51;;;;;;;1.60;1.50;;;;;;;2.82;52.10;94168.59;4971913;28;20221;-70
2023/03/28 04:18:19;;;;;;;1.90;1.80;;;;;;;2.85;52.43;94152.75;4962546;28;21180;-69
2023/03/28 04:20:48;;;;;;;2.17;1.70;;;;;;;2.87;52.44;94150.88;4965403;28;20196;-65
2023/03/28 04:23:19;;;;;;;2.00;1.90;;;;;;;2.78;52.80;94155.06;4968594;28;20288;-65
2023/03/28 04:25:48;;;;;;;1.80;1.70;;;;;;;2.73;52.83;94146.81;4973980;28;20303;-70
2023/03/28 04:28:14;;;;;;;2.40;1.70;;;;;;;2.84;52.79;94166.72;4968883;28;20224;-69
2023/03/28 04:30:42;;;;;;;2.00;1.90;;;;;;;2.80;52.95;94160.09;4962750;28;20250;-65
2023/03/28 04:33:07;;;;;;;1.83;1.73;;;;;;;2.91;52.73;94172.19;4968192;28;20231;-67
2023/03/28 04:35:35;;;;;;;2.07;1.90;;;;;;;3.01;52.74;94175.69;4999031;28;20188;-65
2023/03/28 04:38:01;;;;;;;2.20;1.90;;;;;;;3.05;51.91;94184.91;4967486;28;20337;-67
2023/03/28 04:40:28;;;;;;;1.87;1.77;;;;;;;3.16;51.67;94186.59;4972505;28;20275;-65
2023/03/28 04:42:54;;;;;;;1.70;1.60;;;;;;;3.06;51.86;94205.53;4970722;28;20579;-65
2023/03/28 04:45:19;;;;;;;2.10;2.00;;;;;;;2.93;51.05;94207.47;4965030;28;20225;-64
2023/03/28 04:47:45;;;;;;;2.10;2.00;;;;;;;2.95;50.34;94203.00;4970305;28;20207;-68
2023/03/28 04:50:11;;;;;;;4.17;2.53;;;;;;;2.86;50.77;94221.91;4973599;28;20235;-64
2023/03/28 04:52:37;;;;;;;2.47;2.27;;;;;;;2.75;49.66;94233.16;4972488;28;20224;-67
2023/03/28 04:55:04;;;;;;;2.80;2.60;;;;;;;2.87;48.86;94241.75;4977114;28;20231;-67
2023/03/28 04:57:29;;;;;;;4.13;2.97;;;;;;;2.73;48.38;94239.44;4970352;28;20216;-68
2023/03/28 04:59:55;;;;;;;3.10;2.90;;;;;;;2.72;48.16;94225.63;4972103;28;20228;-65
2023/03/28 05:02:20;;;;;;;3.40;3.10;;;;;;;2.58;48.56;94238.91;4966944;28;20271;-67
2023/03/28 05:04:46;;;;;;;3.63;3.33;;;;;;;2.44;48.92;94232.22;4972941;28;20220;-68
2023/03/28 05:07:12;;;;;;;4.33;3.90;;;;;;;2.41;49.04;94241.06;4975123;28;20246;-68
2023/03/28 05:09:37;;;;;;;4.00;3.70;;;;;;;2.55;48.70;94255.53;4972667;28;20264;-69
2023/03/28 05:12:03;;;;;;;4.90;4.40;;;;;;;2.34;49.07;94239.06;4971277;28;20510;-68
2023/03/28 05:14:28;;;;;;;5.43;4.33;;;;;;;2.52;49.21;94253.19;4968131;28;20199;-70
2023/03/28 05:16:54;;;;;;;4.80;4.37;;;;;;;2.68;48.39;94264.94;4969298;28;20194;-69
2023/03/28 05:19:20;;;;;;;5.00;4.60;;;;;;;2.68;48.51;94257.16;4969497;28;20606;-70
2023/03/28 05:21:46;;;;;;;5.07;4.67;;;;;;;2.87;49.67;94241.75;4969397;28;20229;-68
2023/03/28 05:24:11;;;;;;;5.00;4.60;;;;;;;2.81;49.84;94237.88;4997838;28;20232;-67
2023/03/28 05:26:37;;;;;;;5.07;4.57;;;;;;;2.85;49.93;94246.22;4965656;28;20208;-64
2023/03/28 05:29:02;;;;;;;5.30;4.90;;;;;;;2.84;49.14;94245.41;4969243;28;20187;-64
2023/03/28 05:31:29;;;;;;;4.50;4.10;;;;;;;2.77;49.07;94259.81;4968153;28;20229;-64
2023/03/28 05:33:55;;;;;;;4.97;4.40;;;;;;;2.62;49.08;94243.72;4968989;28;20228;-62
2023/03/28 05:36:22;;;;;;;5.43;4.83;;;;;;;2.57;49.92;94258.03;4968276;28;20239;-60
2023/03/28 05:38:47;;;;;;;4.80;4.50;;;;;;;2.65;49.13;94266.03;4973390;28;20177;-62
2023/03/28 05:41:13;;;;;;;4.70;4.40;;;;;;;2.51;49.85;94268.88;4996939;28;20216;-63
2023/03/28 05:43:39;;;;;;;5.67;5.17;;;;;;;2.64;49.91;94272.97;4968365;28;20284;-61
2023/03/28 05:46:04;;;;;;;5.10;4.70;;;;;;;2.87;49.55;94281.50;4996217;28;20247;-64
2023/03/28 05:48:30;;;;;;;5.30;4.87;;;;;;;2.87;49.27;94306.66;4955566;28;20228;-68
2023/03/28 05:50:56;;;;;;;5.40;5.00;;;;;;;2.76;49.81;94294.53;4969290;28;20228;-68
2023/03/28 05:53:21;;;;;;;5.03;4.60;;;;;;;2.58;49.66;94286.44;4963586;28;20197;-68
2023/03/28 05:55:48;;;;;;;5.63;4.47;;;;;;;2.67;49.20;94291.84;4971873;28;20228;-68
2023/03/28 05:58:13;;;;;;;4.70;4.37;;;;;;;2.81;49.92;94300.19;4989357;28;20311;-66
2023/03/28 06:00:40;;;;;;;5.00;4.50;;;;;;;2.72;50.44;94307.88;4961651;28;20239;-62
2023/03/28 06:03:06;;;;;;;4.93;4.53;;;;;;;2.83;49.31;94292.25;4959290;28;20242;-63
2023/03/28 06:05:32;;;;;;;5.23;4.73;;;;;;;2.61;50.20;94295.75;4955526;28;20187;-63
2023/03/28 06:07:57;;;;;;;5.00;4.57;;;;;;;2.52;50.98;94325.03;4964548;28;20196;-62
2023/03/28 06:10:24;;;;;;;4.90;4.50;;;;;;;2.61;50.04;94338.09;4961901;28;20223;-60
2023/03/28 06:12:50;;;;;;;4.87;4.47;;;;;;;2.80;49.82;94316.69;4986706;28;20227;-64
2023/03/28 06:15:16;;;;;;;5.43;4.93;;;;;;;2.77;50.16;94311.75;4953998;28;20239;-65
2023/03/28 06:17:41;;;;;;;5.50;4.70;;;;;;;2.61;51.29;94327.72;4961616;28;20420;-61
2023/03/28 06:20:08;;;;;;;5.07;4.67;;;;;;;2.69;51.00;94331.47;4961841;28;20224;-60
2023/03/28 06:22:35;;;;;;;4.93;4.53;;;;;;;2.86;49.30;94347.38;4987029;28;20256;-64
2023/03/28 06:25:02;;;;;;;4.40;4.10;;;;;;;2.73;49.47;94343.28;4959297;28;20239;-62
2023/03/28 06:27:27;;;;;;;5.17;4.67;;;;;;;2.75;49.12;94336.19;4975708;28;20229;-64
2023/03/28 06:29:53;;;;;;;4.80;4.50;;;;;;;2.64;49.96;94327.47;4965873;28;20676;-64
2023/03/28 06:32:18;;;;;;;4.87;4.30;;;;;;;2.85;48.92;94331.91;4990449;28;20191;-64
2023/03/28 06:34:44;;;;;;;4.50;4.10;;;;;;;2.84;49.21;94343.25;4963122;28;20282;-63
2023/03/28 06:37:10;;;;;;;5.30;4.90;;;;;;;2.58;49.88;94334.91;4987771;28;20228;-64
2023/03/28 06:39:35;;;;;;;5.27;4.77;;;;;;;2.70;49.54;94349.56;4957518;28;20231;-66
2023/03/28 06:42:02;;;;;;;5.63;4.27;;;;;;;3.01;46.05;94341.91;4993412;28;20231;-62
2023/03/28 06:44:29;;;;;;;4.20;3.90;;;;;;;2.82;46.03;94332.97;4993288;28;20196;-64
2023/03/28 06:46:55;;;;;;;5.00;4.50;;;;;;;2.91;45.91;94339.22;4960361;28;20220;-67
2023/03/28 06:49:21;;;;;;;4.70;4.30;;;;;;;3.02;45.33;94331.41;4988697;28;20346;-66
2023/03/28 06:51:46;;;;;;;3.97;3.67;;;;;;;2.97;45.46;94351.72;4964155;28;20235;-64
2023/03/28 06:54:12;;;;;;;3.90;3.60;;;;;;;3.08;45.87;94354.28;4988328;28;20232;-64
2023/03/28 06:56:37;;;;;;;4.07;3.73;;;;;;;2.59;46.97;94360.78;4961600;28;20247;-62
2023/03/28 06:59:03;;;;;;;4.20;3.90;;;;;;;2.65;47.19;94349.91;4990326;28;20206;-64
2023/03/28 07:01:28;;;;;;;4.33;3.93;;;;;;;2.58;46.72;94353.91;4987661;28;20356;-63
2023/03/28 07:03:54;;;;;;;4.03;3.73;;;;;;;2.64;47.42;94363.81;4959521;28;20228;-61
2023/03/28 07:06:19;;;;;;;5.17;4.50;;;;;;;2.70;47.25;94359.94;4960741;28;20314;-61
2023/03/28 07:08:45;;;;;;;4.33;3.93;;;;;;;2.73;47.26;94372.66;4963357;28;20200;-61
2023/03/28 07:11:10;;;;;;;4.80;4.30;;;;;;;2.68;47.77;94376.56;4961506;28;20192;-61
2023/03/28 07:13:36;;;;;;;5.07;4.50;;;;;;;2.77;47.79;94379.25;4986300;28;20224;-61
2023/03/28 07:16:09;;;;;;;5.10;4.70;;;;;;;3.02;47.71;94383.34;4989163;28;20708;-62
2023/03/28 07:18:35;;;;;;;4.57;4.17;;;;;;;2.95;48.40;94395.16;4987911;28;20224;-63
2023/03/28 07:21:15;;;;;;;4.50;4.20;;;;;;;3.08;47.44;94397.63;4962738;28;20235;-63
2023/03/28 07:23:41;;;;;;;4.83;4.43;;;;;;;3.10;47.10;94393.13;4957804;28;20223;-65
2023/03/28 07:26:08;;;;;;;4.60;4.20;;;;;;;3.13;46.99;94411.06;4987272;28;20177;-65
2023/03/28 07:28:34;;;;;;;5.43;4.93;;;;;;;3.21;47.10;94406.09;4959986;28;20268;-62
2023/03/28 07:31:00;;;;;;;4.87;4.43;;;;;;;2.99;45.13;94408.72;4954360;28;20232;-65
2023/03/28 07:33:26;;;;;;;5.30;4.80;;;;;;;3.11;45.09;94412.97;4962733;28;20233;-67
2023/03/28 07:35:51;;;;;;;4.67;4.27;;;;;;;2.95;45.10;94426.34;4960228;28;20288;-66
2023/03/28 07:38:18;;;;;;;5.03;3.90;;;;;;;3.02;44.58;94416.28;4957696;28;20193;-64
2023/03/28 07:40:43;;;;;;;3.87;3.57;;;;;;;2.87;44.18;94429.53;4991551;28;20303;-63
2023/03/28 07:43:09;;;;;;;4.17;3.77;;;;;;;2.80;44.02;94414.53;4963007;28;20224;-66
2023/03/28 07:45:35;;;;;;;7.03;3.70;;;;;;;2.96;43.89;94424.56;4958454;28;20225;-67
2023/03/28 07:48:01;;;;;;;3.77;3.40;;;;;;;2.90;43.89;94441.44;4993232;28;20272;-65
2023/03/28 07:50:26;;;;;;;3.77;3.47;;;;;;;2.52;44.63;94408.06;4963508;28;20283;-65
2023/03/28 07:52:56;;;;;;;4.07;3.73;;;;;;;2.81;44.62;94427.41;4963615;28;20220;-66
2023/03/28 07:55:23;;;;;;;4.63;4.23;;;;;;;2.82;45.10;94410.06;4964610;28;20267;-65
2023/03/28 07:57:48;;;;;;;4.60;4.30;;;;;;;3.00;44.71;94425.97;4961127;28;20258;-63
2023/03/28 08:00:16;;;;;;;5.03;4.40;;;;;;;3.07;44.96;94425.38;4967655;28;20255;-66
2023/03/28 08:02:44;;;;;;;4.80;4.40;;;;;;;3.20;44.34;94427.00;4963263;28;20276;-65
2023/03/28 08:05:10;;;;;;;4.97;4.27;;;;;;;2.78;44.63;94434.59;4960491;28;20181;-63
2023/03/28 08:07:35;;;;;;;7.10;4.30;;;;;;;2.88;44.84;94438.94;4969640;28;20236;-63
2023/03/28 08:10:02;;;;;;;4.50;4.10;;;;;;;2.82;45.51;94446.41;4997263;28;20224;-65
2023/03/28 08:12:28;;;;;;;3.97;3.67;;;;;;;2.78;46.00;94458.81;4977782;28;20232;-68
2023/03/28 08:14:54;;;;;;;4.20;3.80;;;;;;;2.80;46.60;94466.47;4993125;28;20228;-64
2023/03/28 08:17:20;;;;;;;4.90;3.97;;;;;;;2.94;46.61;94440.28;4960058;28;20185;-64
2023/03/28 08:19:46;;;;;;;4.80;4.00;;;;;;;2.88;46.60;94470.13;4964895;28;20212;-62
2023/03/28 08:22:11;;;;;;;3.40;3.10;;;;;;;2.69;47.85;94467.28;4967152;28;20235;-64
2023/03/28 08:24:39;;;;;;;3.70;3.40;;;;;;;2.80;48.31;94482.03;4965945;28;20235;-67
2023/03/28 08:27:04;;;;;;;3.83;3.50;;;;;;;2.63;48.88;94478.16;4965524;28;20220;-67
2023/03/28 08:29:30;;;;;;;4.23;3.40;;;;;;;2.83;49.65;94476.59;4965353;28;20288;-66
2023/03/28 08:31:56;;;;;;;3.83;3.53;;;;;;;2.74;50.12;94478.16;4997668;28;20190;-68
2023/03/28 08:34:22;;;;;;;4.20;3.50;;;;;;;2.55;49.54;94475.31;4962149;28;20566;-68
2023/03/28 08:36:47;;;;;;;3.60;3.30;;;;;;;2.71;49.43;94469.78;4963238;28;20216;-71
2023/03/28 08:39:13;;;;;;;3.80;3.50;;;;;;;2.80;49.12;94475.06;4963800;28;20279;-68
2023/03/28 08:42:16;;;;;;;4.17;3.40;;;;;;;2.79;48.27;94488.19;4960785;28;20223;-66
2023/03/28 08:44:57;;;;;;;4.23;3.23;;;;;;;2.91;47.36;94478.63;4964482;28;20263;-68
2023/03/28 08:47:31;;;;;;;4.00;3.60;;;;;;;3.15;46.94;94481.09;4960404;28;20189;-69
2023/03/28 08:50:00;;;;;;;4.67;3.27;;;;;;;2.73;48.65;94486.91;4959464;28;20390;-66
2023/03/28 08:52:27;;;;;;;4.97;3.60;;;;;;;2.95;48.39;94490.44;4964399;28;20220;-69
2023/03/28 08:55:09;;;;;;;5.13;3.50;;;;;;;3.05;47.64;94481.81;4965124;28;20227;-65
2023/03/28 08:57:36;;;;;;;3.90;3.60;;;;;;;3.12;47.22;94486.53;4967390;28;20227;-69
2023/03/28 09:00:30;;;;;;;3.53;3.20;;;;;;;3.26;46.48;94504.44;4960557;28;20587;-67
2023/03/28 09:02:56;;;;;;;3.50;3.20;;;;;;;3.36;46.30;94489.78;4987004;28;20315;-64
2023/03/28 09:05:36;;;;;;;3.83;3.40;;;;;;;3.46;44.39;94489.91;4964818;28;20214;-69
2023/03/28 09:08:07;;;;;;;3.30;3.10;;;;;;;3.62;44.08;94492.09;4993497;28;20232;-69
2023/03/28 09:10:42;;;;;;;5.07;3.73;;;;;;;3.68;44.66;94523.63;4960738;28;20262;-69
2023/03/28 09:13:24;;;;;;;4.40;3.60;;;;;;;3.69;44.65;94503.69;4953209;28;20643;-62
2023/03/28 09:16:15;;;;;;;4.13;3.40;;;;;;;3.63;46.34;94522.34;4970292;28;20221;-62
2023/03/28 09:19:10;;;;;;;4.20;3.80;;;;;;;3.60;46.01;94514.78;4977183;28;20576;-66
2023/03/28 09:22:04;;;;;;;3.50;3.20;;;;;;;3.47;45.88;94523.53;4971496;28;20235;-67
2023/03/28 09:24:32;;;;;;;3.53;3.23;;;;;;;3.17;47.22;94525.97;4961785;28;20225;-66
2023/03/28 09:26:58;;;;;;;4.10;3.63;;;;;;;3.07;47.88;94531.88;4963772;28;20376;-66
2023/03/28 09:29:24;;;;;;;5.17;3.70;;;;;;;3.21;48.36;94504.81;4958634;28;20200;-66
2023/03/28 09:31:57;;;;;;;4.80;3.60;;;;;;;3.31;47.47;94520.50;4986993;28;20311;-67
2023/03/28 09:34:50;;;;;;;4.00;3.27;;;;;;;3.43;46.18;94536.94;4986231;28;20228;-67
2023/03/28 09:37:21;;;;;;;3.97;3.67;;;;;;;3.19;46.58;94535.28;4955534;28;20227;-66
2023/03/28 09:39:51;;;;;;;3.23;3.03;;;;;;;3.18;46.51;94530.19;4960805;28;20275;-67
2023/03/28 09:42:39;;;;;;;3.70;3.40;;;;;;;3.09;46.12;94511.78;4989003;28;20319;-68
2023/03/28 09:45:13;;;;;;;3.77;3.30;;;;;;;2.82;47.59;94517.34;4996832;28;20289;-69
2023/03/28 09:47:41;;;;;;;3.50;3.20;;;;;;;3.00;48.25;94516.88;4969476;28;20245;-69
2023/03/28 09:50:14;;;;;;;4.47;3.37;;;;;;;2.85;49.41;94526.66;4961754;28;20264;-69
2023/03/28 09:52:40;;;;;;;4.20;3.67;;;;;;;3.11;48.72;94516.88;4995405;28;20215;-64
2023/03/28 09:55:16;;;;;;;5.40;3.63;;;;;;;3.55;47.40;94543.75;4966656;28;20699;-70
2023/03/28 09:58:07;;;;;;;5.33;4.00;;;;;;;3.24;47.05;94525.38;4994415;28;20232;-69
2023/03/28 10:00:41;;;;;;;3.43;3.13;;;;;;;3.29;48.40;94532.81;4967208;28;20229;-70
2023/03/28 10:03:39;;;;;;;4.90;3.57;;;;;;;3.28;48.55;94537.16;4993843;28;20232;-69
2023/03/28 10:06:28;;;;;;;5.07;3.60;;;;;;;3.23;46.63;94541.88;4968962;28;20227;-69
2023/03/28 10:09:20;;;;;;;3.80;2.97;;;;;;;3.18;44.72;94528.44;4980698;28;20303;-68
2023/03/28 10:11:55;;;;;;;5.23;3.03;;;;;;;3.54;42.70;94524.72;4970589;28;20191;-68
2023/03/28 10:14:30;;;;;;;4.47;3.17;;;;;;;3.81;42.57;94520.88;5002917;28;20198;-68
2023/03/28 10:17:00;;;;;;;3.53;3.23;;;;;;;4.01;41.82;94500.22;4967213;28;20235;-66
2023/03/28 10:19:32;;;;;;;4.20;2.97;;;;;;;3.86;40.64;94517.91;4961967;28;20310;-68
2023/03/28 10:22:11;;;;;;;3.50;3.00;;;;;;;4.03;41.01;94508.75;4997307;28;20731;-69
2023/03/28 10:24:38;;;;;;;4.17;2.83;;;;;;;4.19;40.05;94507.34;4969480;28;20231;-66
2023/03/28 10:27:17;;;;;;;3.67;3.20;;;;;;;4.08;40.96;94524.81;4969403;28;20231;-67
2023/03/28 10:29:45;;;;;;;4.17;3.30;;;;;;;3.63;41.46;94512.75;4966147;28;20193;-68
2023/03/28 10:32:26;;;;;;;3.80;3.40;;;;;;;3.68;42.01;94533.22;4966504;28;20664;-66
2023/03/28 10:35:24;;;;;;;3.70;3.40;;;;;;;3.79;41.48;94537.56;4964017;28;20229;-66
2023/03/28 10:37:53;;;;;;;3.03;2.77;;;;;;;3.83;41.16;94513.78;4962132;28;20295;-67
2023/03/28 10:40:19;;;;;;;3.43;2.93;;;;;;;4.18;41.36;94512.72;4997187;28;20599;-66
2023/03/28 10:42:48;;;;;;;3.50;3.10;;;;;;;4.63;40.42;94521.09;4968299;28;20224;-65
2023/03/28 10:45:39;;;;;;;4.97;3.50;;;;;;;5.02;39.69;94517.88;4992834;28;20235;-66
2023/03/28 10:48:25;;;;;;;3.30;2.70;;;;;;;4.72;40.33;94519.50;4963101;28;20290;-67
2023/03/28 10:50:55;;;;;;;3.50;3.20;;;;;;;4.25;40.81;94518.22;4972404;28;20231;-67
2023/03/28 10:53:48;;;;;;;4.27;3.60;;;;;;;3.96;41.81;94501.44;4997236;28;20184;-66
2023/03/28 10:56:28;;;;;;;5.27;3.30;;;;;;;4.00;41.20;94529.81;4966302;28;20299;-66
2023/03/28 10:59:03;;;;;;;3.70;3.40;;;;;;;4.29;40.91;94520.47;4966119;28;20239;-65
2023/03/28 11:01:43;;;;;;;3.70;3.40;;;;;;;4.53;41.14;94529.81;4995961;28;20235;-64
2023/03/28 11:04:33;;;;;;;3.97;3.17;;;;;;;4.83;40.95;94518.59;4964572;28;20240;-65
2023/03/28 11:07:16;;;;;;;3.37;3.07;;;;;;;5.12;40.27;94539.59;4968673;28;20223;-64
2023/03/28 11:09:55;;;;;;;3.33;3.03;;;;;;;5.40;38.96;94540.69;4969736;28;20242;-66
2023/03/28 11:12:26;;;;;;;2.93;2.70;;;;;;;5.05;39.59;94543.66;4999172;28;20227;-66
2023/03/28 11:15:13;;;;;;;3.10;2.80;;;;;;;5.07;39.57;94536.53;4966534;28;20228;-67
2023/03/28 11:18:00;;;;;;;2.93;2.63;;;;;;;5.35;39.21;94549.84;4992971;28;20549;-66
2023/03/28 11:20:50;;;;;;;3.37;3.07;;;;;;;5.39;38.81;94559.88;4988718;28;20440;-66
2023/03/28 11:23:48;;;;;;;6.53;3.27;;;;;;;5.51;37.72;94564.03;4985810;28;20221;-64
2023/03/28 11:26:15;;;;;;;3.07;2.77;;;;;;;5.70;37.88;94534.56;4959062;28;20283;-64
2023/03/28 11:28:50;;;;;;;3.03;2.70;;;;;;;5.90;37.01;94532.00;4962159;28;20219;-64
2023/03/28 11:31:25;;;;;;;3.30;3.00;;;;;;;6.44;35.84;94529.84;4945478;28;20454;-65
2023/03/28 11:34:11;;;;;;;3.07;2.77;;;;;;;6.18;35.69;94533.84;4951986;28;20223;-65
2023/03/28 11:36:44;;;;;;;3.00;2.80;;;;;;;5.82;35.81;94543.09;4949210;28;20232;-66
2023/03/28 11:39:16;;;;;;;3.13;2.80;;;;;;;5.72;36.00;94517.00;4949340;28;20232;-66
2023/03/28 11:41:45;;;;;;;4.50;3.00;;;;;;;5.56;35.13;94518.47;4949084;28;20788;-65
2023/03/28 11:44:30;;;;;;;4.30;2.50;;;;;;;5.54;35.15;94521.22;4952352;28;20199;-64
2023/03/28 11:47:01;;;;;;;3.33;2.87;;;;;;;5.14;35.57;94550.72;4962311;28;20249;-66
2023/03/28 11:49:47;;;;;;;3.00;2.80;;;;;;;5.40;34.71;94543.28;4965459;28;20311;-67
2023/03/28 11:52:36;;;;;;;3.87;2.33;;;;;;;5.26;35.55;94552.25;4952223;28;20236;-66
2023/03/28 11:55:20;;;;;;;4.53;2.70;;;;;;;5.53;34.26;94543.03;4968175;28;20318;-67
2023/03/28 11:57:56;;;;;;;3.50;2.73;;;;;;;5.66;34.07;94554.03;4965913;28;20240;-67
2023/03/28 12:00:43;;;;;;;4.23;3.13;;;;;;;5.86;34.12;94569.78;4951065;28;20239;-67
2023/03/28 12:03:29;;;;;;;3.03;2.73;;;;;;;5.92;33.46;94535.31;4953967;28;20319;-69